createdAt,value
2018-03-29T00:00:30.694Z,54.90
2018-03-29T00:01:30.773Z,55.10
2018-03-29T00:02:30.695Z,55.38
2018-03-29T00:03:31.031Z,54.80
2018-03-29T00:04:30.808Z,55.29
2018-03-29T00:05:30.786Z,55.29
2018-03-29T00:06:30.807Z,55.10
2018-03-29T00:07:30.841Z,55.38
2018-03-29T00:08:30.871Z,55.38
2018-03-29T00:09:30.913Z,55.38
2018-03-29T00:10:31.225Z,55.67
2018-03-29T00:11:30.948Z,55.67
2018-03-29T00:12:30.982Z,55.96
2018-03-29T00:13:31.006Z,56.05
2018-03-29T00:14:31.032Z,55.86
2018-03-29T00:15:31.072Z,55.86
2018-03-29T00:16:31.126Z,55.86
2018-03-29T00:17:31.373Z,55.96
2018-03-29T00:18:31.152Z,56.05
2018-03-29T00:19:31.177Z,56.05
2018-03-29T00:20:31.248Z,55.57
2018-03-29T00:21:31.280Z,55.57
2018-03-29T00:22:31.264Z,55.96
2018-03-29T00:23:31.294Z,55.96
2018-03-29T00:24:31.617Z,55.96
2018-03-29T00:25:31.352Z,56.05
2018-03-29T00:26:31.372Z,55.19
2018-03-29T00:27:31.406Z,55.57
2018-03-29T00:28:31.516Z,55.29
2018-03-29T00:29:31.461Z,55.29
2018-03-29T00:30:31.489Z,55.57
2018-03-29T00:31:31.817Z,55.19
2018-03-29T00:32:31.556Z,55.10
2018-03-29T00:33:31.632Z,55.19
2018-03-29T00:34:31.718Z,55.57
2018-03-29T00:35:31.670Z,55.29
2018-03-29T00:36:31.656Z,55.29
2018-03-29T00:37:31.681Z,55.77
2018-03-29T00:38:32.011Z,55.96
2018-03-29T00:39:31.741Z,55.57
2018-03-29T00:40:31.794Z,55.29
2018-03-29T00:41:31.798Z,55.38
2018-03-29T00:42:31.822Z,55.29
2018-03-29T00:43:31.851Z,54.90
2018-03-29T00:44:31.882Z,55.29
2018-03-29T00:45:32.259Z,55.38
2018-03-29T00:46:31.933Z,55.19
2018-03-29T00:47:31.973Z,55.38
2018-03-29T00:48:32.029Z,55.47
2018-03-29T00:49:32.018Z,55.67
2018-03-29T00:50:32.078Z,56.05
2018-03-29T00:51:32.172Z,55.57
2018-03-29T00:52:32.427Z,55.19
2018-03-29T00:53:32.250Z,55.10
2018-03-29T00:54:32.161Z,55.19
2018-03-29T00:55:32.189Z,55.10
2018-03-29T00:56:32.216Z,55.19
2018-03-29T00:57:32.294Z,55.47
2018-03-29T00:58:32.277Z,55.29
2018-03-29T00:59:32.564Z,55.10
2018-03-29T01:00:32.340Z,55.19
2018-03-29T01:01:32.357Z,56.05
2018-03-29T01:02:32.386Z,56.05
2018-03-29T01:03:32.463Z,55.57
2018-03-29T01:04:32.449Z,55.57
2018-03-29T01:05:32.476Z,55.29
2018-03-29T01:06:32.862Z,55.57
2018-03-29T01:07:32.528Z,55.10
2018-03-29T01:08:32.554Z,55.19
2018-03-29T01:09:32.584Z,55.47
2018-03-29T01:10:32.662Z,56.05
2018-03-29T01:11:32.639Z,56.05
2018-03-29T01:12:32.976Z,55.10
2018-03-29T01:13:32.708Z,55.38
2018-03-29T01:14:32.726Z,55.57
2018-03-29T01:15:32.822Z,55.38
2018-03-29T01:16:32.810Z,55.38
2018-03-29T01:17:32.809Z,55.10
2018-03-29T01:18:33.089Z,55.29
2018-03-29T01:19:32.868Z,55.47
2018-03-29T01:20:32.895Z,55.57
2018-03-29T01:21:32.927Z,55.67
2018-03-29T01:22:32.965Z,55.38
2018-03-29T01:23:32.977Z,56.05
2018-03-29T01:24:33.257Z,55.38
2018-03-29T01:25:33.035Z,55.38
2018-03-29T01:26:33.066Z,54.90
2018-03-29T01:27:33.097Z,55.47
2018-03-29T01:28:33.122Z,55.29
2018-03-29T01:29:33.146Z,55.29
2018-03-29T01:30:33.501Z,56.05
2018-03-29T01:31:33.207Z,55.47
2018-03-29T01:32:33.233Z,55.47
2018-03-29T01:33:33.258Z,55.86
2018-03-29T01:34:33.296Z,55.67
2018-03-29T01:35:33.370Z,55.67
2018-03-29T01:36:33.599Z,55.77
2018-03-29T01:37:33.414Z,55.86
2018-03-29T01:38:33.417Z,56.15
2018-03-29T01:39:33.431Z,56.15
2018-03-29T01:40:33.490Z,55.96
2018-03-29T01:41:33.502Z,55.67
2018-03-29T01:42:33.772Z,55.77
2018-03-29T01:43:33.542Z,55.86
2018-03-29T01:44:33.673Z,55.67
2018-03-29T01:45:33.599Z,55.77
2018-03-29T01:46:33.635Z,56.05
2018-03-29T01:47:33.694Z,55.96
2018-03-29T01:48:33.982Z,55.47
2018-03-29T01:49:33.766Z,55.47
2018-03-29T01:50:33.739Z,55.67
2018-03-29T01:51:33.769Z,55.86
2018-03-29T01:52:33.801Z,55.96
2018-03-29T01:53:33.822Z,56.05
2018-03-29T01:54:34.166Z,55.67
2018-03-29T01:55:33.879Z,55.86
2018-03-29T01:56:33.907Z,55.67
2018-03-29T01:57:33.937Z,55.96
2018-03-29T01:58:33.976Z,55.29
2018-03-29T01:59:34.000Z,55.29
2018-03-29T02:00:34.339Z,55.38
2018-03-29T02:01:34.052Z,55.19
2018-03-29T02:02:34.075Z,55.29
2018-03-29T02:03:34.130Z,55.29
2018-03-29T02:04:34.140Z,55.38
2018-03-29T02:05:34.171Z,55.47
2018-03-29T02:06:34.501Z,56.05
2018-03-29T02:07:34.224Z,55.96
2018-03-29T02:08:34.330Z,55.96
2018-03-29T02:09:34.282Z,55.67
2018-03-29T02:10:34.316Z,55.57
2018-03-29T02:11:34.329Z,56.05
2018-03-29T02:12:34.672Z,56.05
2018-03-29T02:13:34.390Z,56.05
2018-03-29T02:14:34.443Z,55.96
2018-03-29T02:15:34.451Z,55.96
2018-03-29T02:16:34.495Z,56.05
2018-03-29T02:17:34.503Z,55.38
2018-03-29T02:18:34.890Z,55.29
2018-03-29T02:19:34.559Z,55.19
2018-03-29T02:20:34.587Z,55.10
2018-03-29T02:21:34.621Z,55.19
2018-03-29T02:22:34.654Z,55.10
2018-03-29T02:23:34.765Z,55.38
2018-03-29T02:24:34.698Z,55.19
2018-03-29T02:25:35.046Z,54.90
2018-03-29T02:26:34.797Z,55.38
2018-03-29T02:27:34.796Z,55.00
2018-03-29T02:28:34.809Z,55.10
2018-03-29T02:29:34.956Z,55.57
2018-03-29T02:30:34.870Z,55.29
2018-03-29T02:31:34.957Z,55.57
2018-03-29T02:32:35.223Z,55.19
2018-03-29T02:33:35.066Z,55.47
2018-03-29T02:34:35.024Z,55.10
2018-03-29T02:35:35.010Z,55.29
2018-03-29T02:36:35.088Z,55.57
2018-03-29T02:37:35.064Z,55.29
2018-03-29T02:38:35.103Z,55.19
2018-03-29T02:39:35.372Z,55.29
2018-03-29T02:40:35.147Z,55.29
2018-03-29T02:41:35.242Z,55.38
2018-03-29T02:42:35.229Z,55.38
2018-03-29T02:43:35.233Z,55.29
2018-03-29T02:44:35.269Z,55.29
2018-03-29T02:45:35.304Z,55.47
2018-03-29T02:46:35.623Z,55.38
2018-03-29T02:47:35.411Z,55.19
2018-03-29T02:48:35.424Z,55.19
2018-03-29T02:49:35.405Z,55.38
2018-03-29T02:50:35.431Z,55.96
2018-03-29T02:51:35.457Z,55.86
2018-03-29T02:52:35.488Z,55.47
2018-03-29T02:53:35.872Z,55.38
2018-03-29T02:54:35.543Z,55.77
2018-03-29T02:55:35.600Z,56.05
2018-03-29T02:56:35.603Z,55.67
2018-03-29T02:57:35.634Z,55.77
2018-03-29T02:58:35.774Z,55.77
2018-03-29T02:59:35.753Z,55.67
2018-03-29T03:00:35.964Z,55.47
2018-03-29T03:01:35.806Z,55.67
2018-03-29T03:02:35.769Z,55.67
2018-03-29T03:03:35.798Z,55.77
2018-03-29T03:04:35.831Z,55.96
2018-03-29T03:05:35.857Z,55.77
2018-03-29T03:06:35.885Z,55.77
2018-03-29T03:07:36.214Z,55.67
2018-03-29T03:08:35.939Z,55.77
2018-03-29T03:09:35.971Z,55.47
2018-03-29T03:10:35.999Z,55.67
2018-03-29T03:11:36.035Z,55.47
2018-03-29T03:12:36.052Z,55.77
2018-03-29T03:13:36.079Z,55.77
2018-03-29T03:14:36.458Z,55.38
2018-03-29T03:15:36.179Z,55.77
2018-03-29T03:16:36.176Z,55.86
2018-03-29T03:17:36.204Z,55.67
2018-03-29T03:18:36.221Z,55.67
2018-03-29T03:19:36.298Z,55.77
2018-03-29T03:20:36.278Z,56.05
2018-03-29T03:21:36.558Z,55.67
2018-03-29T03:22:36.336Z,55.86
2018-03-29T03:23:36.411Z,55.96
2018-03-29T03:24:36.396Z,55.77
2018-03-29T03:25:36.425Z,56.05
2018-03-29T03:26:36.448Z,56.05
2018-03-29T03:27:36.484Z,56.05
2018-03-29T03:28:36.758Z,55.96
2018-03-29T03:29:36.535Z,56.05
2018-03-29T03:30:36.570Z,55.96
2018-03-29T03:31:36.594Z,55.96
2018-03-29T03:32:36.621Z,55.86
2018-03-29T03:33:36.699Z,56.05
2018-03-29T03:34:36.741Z,55.47
2018-03-29T03:35:37.000Z,55.67
2018-03-29T03:36:36.743Z,55.67
2018-03-29T03:37:36.760Z,56.05
2018-03-29T03:38:36.840Z,55.77
2018-03-29T03:39:36.818Z,55.96
2018-03-29T03:40:36.846Z,55.57
2018-03-29T03:41:37.173Z,55.67
2018-03-29T03:42:36.920Z,55.57
2018-03-29T03:43:36.983Z,55.57
2018-03-29T03:44:36.961Z,55.57
2018-03-29T03:45:37.026Z,55.57
2018-03-29T03:46:37.026Z,55.47
2018-03-29T03:47:37.351Z,55.57
2018-03-29T03:48:37.067Z,55.57
2018-03-29T03:49:37.099Z,55.57
2018-03-29T03:50:37.194Z,55.47
2018-03-29T03:51:37.163Z,55.47
2018-03-29T03:52:37.221Z,55.29
2018-03-29T03:53:37.513Z,55.47
2018-03-29T03:54:37.291Z,55.10
2018-03-29T03:55:37.299Z,55.29
2018-03-29T03:56:37.325Z,55.29
2018-03-29T03:57:37.327Z,55.19
2018-03-29T03:58:37.382Z,55.38
2018-03-29T03:59:37.705Z,55.29
2018-03-29T04:00:37.482Z,55.29
2018-03-29T04:01:37.447Z,55.29
2018-03-29T04:02:37.591Z,55.29
2018-03-29T04:03:37.500Z,55.38
2018-03-29T04:04:37.531Z,55.10
2018-03-29T04:05:37.803Z,55.38
2018-03-29T04:06:37.634Z,55.29
2018-03-29T04:07:37.663Z,55.29
2018-03-29T04:08:37.636Z,55.29
2018-03-29T04:09:37.673Z,55.29
2018-03-29T04:10:37.693Z,55.19
2018-03-29T04:11:37.978Z,55.19
2018-03-29T04:12:37.751Z,55.38
2018-03-29T04:13:37.795Z,55.10
2018-03-29T04:14:37.809Z,55.29
2018-03-29T04:15:37.834Z,55.19
2018-03-29T04:16:37.862Z,55.19
2018-03-29T04:17:38.292Z,55.29
2018-03-29T04:18:37.947Z,55.10
2018-03-29T04:19:37.954Z,55.19
2018-03-29T04:20:37.988Z,55.19
2018-03-29T04:21:38.015Z,55.19
2018-03-29T04:22:38.031Z,55.29
2018-03-29T04:23:38.364Z,55.57
2018-03-29T04:24:38.095Z,55.29
2018-03-29T04:25:38.149Z,55.29
2018-03-29T04:26:38.145Z,55.29
2018-03-29T04:27:38.176Z,55.10
2018-03-29T04:28:38.205Z,55.19
2018-03-29T04:29:38.536Z,55.10
2018-03-29T04:30:38.260Z,55.10
2018-03-29T04:31:38.297Z,55.10
2018-03-29T04:32:38.325Z,55.19
2018-03-29T04:33:38.344Z,55.29
2018-03-29T04:34:38.386Z,55.19
2018-03-29T04:35:38.765Z,55.19
2018-03-29T04:36:38.455Z,55.29
2018-03-29T04:37:38.458Z,55.19
2018-03-29T04:38:38.485Z,55.19
2018-03-29T04:39:38.519Z,55.19
2018-03-29T04:40:38.619Z,55.10
2018-03-29T04:41:38.830Z,55.29
2018-03-29T04:42:38.610Z,55.38
2018-03-29T04:43:38.648Z,55.38
2018-03-29T04:44:38.689Z,55.38
2018-03-29T04:45:38.747Z,55.29
2018-03-29T04:46:38.729Z,55.38
2018-03-29T04:47:39.043Z,55.29
2018-03-29T04:48:38.795Z,55.38
2018-03-29T04:49:38.809Z,55.38
2018-03-29T04:50:38.825Z,55.57
2018-03-29T04:51:38.853Z,55.29
2018-03-29T04:52:38.883Z,55.29
2018-03-29T04:53:38.969Z,55.38
2018-03-29T04:54:39.287Z,55.38
2018-03-29T04:55:38.967Z,55.38
2018-03-29T04:56:39.006Z,55.38
2018-03-29T04:57:39.091Z,55.29
2018-03-29T04:58:39.058Z,55.29
2018-03-29T04:59:39.083Z,55.19
2018-03-29T05:00:39.131Z,55.29
2018-03-29T05:01:39.390Z,54.90
2018-03-29T05:02:39.170Z,54.90
2018-03-29T05:03:39.193Z,54.90
2018-03-29T05:04:39.262Z,55.19
2018-03-29T05:05:39.262Z,55.10
2018-03-29T05:06:39.287Z,54.80
2018-03-29T05:07:39.342Z,55.00
2018-03-29T05:08:39.666Z,55.19
2018-03-29T05:09:39.362Z,55.19
2018-03-29T05:10:39.415Z,55.29
2018-03-29T05:11:39.474Z,55.10
2018-03-29T05:12:39.452Z,55.19
2018-03-29T05:13:39.483Z,55.19
2018-03-29T05:14:39.548Z,55.10
2018-03-29T05:15:39.807Z,55.19
2018-03-29T05:16:39.630Z,55.19
2018-03-29T05:17:39.597Z,55.19
2018-03-29T05:18:39.700Z,55.19
2018-03-29T05:19:39.666Z,55.10
2018-03-29T05:20:39.727Z,55.19
2018-03-29T05:21:39.716Z,54.90
2018-03-29T05:22:40.041Z,54.90
2018-03-29T05:23:39.778Z,54.90
2018-03-29T05:24:39.797Z,55.19
2018-03-29T05:25:39.826Z,54.90
2018-03-29T05:26:39.868Z,54.90
2018-03-29T05:27:39.900Z,55.29
2018-03-29T05:28:39.914Z,55.29
2018-03-29T05:29:40.190Z,55.29
2018-03-29T05:30:39.964Z,55.19
2018-03-29T05:31:39.995Z,55.29
2018-03-29T05:32:40.017Z,55.38
2018-03-29T05:33:40.059Z,55.29
2018-03-29T05:34:40.081Z,55.38
2018-03-29T05:35:40.127Z,55.19
2018-03-29T05:36:40.403Z,55.19
2018-03-29T05:37:40.209Z,55.29
2018-03-29T05:38:40.192Z,55.19
2018-03-29T05:39:40.217Z,55.19
2018-03-29T05:40:40.317Z,55.10
2018-03-29T05:41:40.319Z,55.10
2018-03-29T05:42:40.358Z,55.10
2018-03-29T05:43:40.595Z,55.10
2018-03-29T05:44:40.359Z,55.10
2018-03-29T05:45:40.396Z,55.10
2018-03-29T05:46:40.418Z,55.47
2018-03-29T05:47:40.446Z,55.47
2018-03-29T05:48:40.481Z,55.38
2018-03-29T05:49:40.542Z,55.38
2018-03-29T05:50:40.848Z,55.38
2018-03-29T05:51:40.565Z,55.29
2018-03-29T05:52:40.591Z,55.29
2018-03-29T05:53:40.811Z,55.00
2018-03-29T05:54:40.644Z,55.00
2018-03-29T05:55:40.678Z,55.19
2018-03-29T05:56:40.701Z,55.10
2018-03-29T05:57:41.041Z,55.10
2018-03-29T05:58:40.815Z,55.10
2018-03-29T05:59:40.788Z,55.00
2018-03-29T06:00:40.840Z,55.10
2018-03-29T06:01:40.848Z,54.90
2018-03-29T06:02:40.987Z,54.90
2018-03-29T06:03:40.907Z,54.90
2018-03-29T06:04:41.209Z,54.80
2018-03-29T06:05:40.971Z,54.61
2018-03-29T06:06:40.986Z,54.61
2018-03-29T06:07:41.065Z,54.71
2018-03-29T06:08:41.046Z,54.71
2018-03-29T06:09:41.079Z,55.00
2018-03-29T06:10:41.350Z,55.00
2018-03-29T06:11:41.131Z,55.00
2018-03-29T06:12:41.164Z,55.00
2018-03-29T06:13:41.200Z,54.90
2018-03-29T06:14:41.218Z,54.90
2018-03-29T06:15:41.248Z,54.71
2018-03-29T06:16:41.521Z,54.71
2018-03-29T06:17:41.312Z,54.80
2018-03-29T06:18:41.382Z,54.90
2018-03-29T06:19:41.360Z,54.90
2018-03-29T06:20:41.393Z,54.80
2018-03-29T06:21:41.422Z,54.80
2018-03-29T06:22:41.694Z,54.80
2018-03-29T06:23:41.483Z,54.61
2018-03-29T06:24:41.516Z,54.61
2018-03-29T06:25:41.529Z,54.61
2018-03-29T06:26:41.561Z,54.52
2018-03-29T06:27:41.586Z,54.90
2018-03-29T06:28:41.871Z,54.80
2018-03-29T06:29:41.652Z,54.80
2018-03-29T06:30:41.681Z,54.71
2018-03-29T06:31:41.699Z,54.71
2018-03-29T06:32:41.744Z,54.90
2018-03-29T06:33:41.778Z,55.02
2018-03-29T06:34:42.108Z,55.00
2018-03-29T06:35:41.821Z,55.00
2018-03-29T06:36:41.869Z,54.90
2018-03-29T06:37:41.883Z,55.02
2018-03-29T06:38:42.011Z,54.90
2018-03-29T06:39:41.938Z,54.90
2018-03-29T06:40:42.262Z,54.93
2018-03-29T06:41:41.987Z,55.00
2018-03-29T06:42:42.015Z,54.93
2018-03-29T06:43:42.044Z,55.02
2018-03-29T06:44:42.072Z,54.80
2018-03-29T06:45:42.113Z,55.10
2018-03-29T06:46:42.443Z,55.19
2018-03-29T06:47:42.163Z,55.12
2018-03-29T06:48:42.218Z,55.00
2018-03-29T06:49:42.220Z,55.10
2018-03-29T06:50:42.272Z,55.02
2018-03-29T06:51:42.276Z,54.55
2018-03-29T06:52:42.557Z,54.45
2018-03-29T06:53:42.342Z,54.45
2018-03-29T06:54:42.421Z,54.06
2018-03-29T06:55:42.412Z,54.45
2018-03-29T06:56:42.417Z,54.52
2018-03-29T06:57:42.449Z,54.45
2018-03-29T06:58:42.731Z,54.25
2018-03-29T06:59:42.502Z,53.66
2018-03-29T07:00:42.540Z,54.33
2018-03-29T07:01:42.559Z,54.33
2018-03-29T07:02:42.599Z,54.35
2018-03-29T07:03:42.619Z,54.25
2018-03-29T07:04:42.896Z,54.06
2018-03-29T07:05:42.676Z,54.35
2018-03-29T07:06:42.804Z,54.06
2018-03-29T07:07:42.735Z,54.25
2018-03-29T07:08:42.761Z,54.35
2018-03-29T07:09:42.815Z,54.16
2018-03-29T07:10:43.072Z,54.16
2018-03-29T07:11:42.845Z,54.45
2018-03-29T07:12:42.878Z,54.16
2018-03-29T07:13:42.910Z,54.25
2018-03-29T07:14:42.941Z,54.16
2018-03-29T07:15:42.965Z,54.23
2018-03-29T07:16:43.294Z,54.25
2018-03-29T07:17:43.029Z,54.45
2018-03-29T07:18:43.096Z,54.25
2018-03-29T07:19:43.075Z,54.45
2018-03-29T07:20:43.132Z,54.35
2018-03-29T07:21:43.152Z,54.45
2018-03-29T07:22:43.190Z,53.97
2018-03-29T07:23:43.448Z,53.78
2018-03-29T07:24:43.219Z,54.16
2018-03-29T07:25:43.256Z,53.68
2018-03-29T07:26:43.296Z,53.87
2018-03-29T07:27:43.410Z,53.87
2018-03-29T07:28:43.341Z,53.78
2018-03-29T07:29:43.365Z,53.78
2018-03-29T07:30:43.696Z,53.87
2018-03-29T07:31:43.433Z,53.68
2018-03-29T07:32:43.459Z,53.68
2018-03-29T07:33:43.477Z,53.87
2018-03-29T07:34:43.512Z,53.78
2018-03-29T07:35:43.538Z,53.58
2018-03-29T07:36:43.585Z,53.58
2018-03-29T07:37:43.909Z,53.68
2018-03-29T07:38:43.629Z,53.87
2018-03-29T07:39:43.660Z,53.87
2018-03-29T07:40:43.728Z,53.87
2018-03-29T07:41:43.713Z,53.87
2018-03-29T07:42:43.736Z,53.87
2018-03-29T07:43:43.769Z,53.58
2018-03-29T07:44:44.104Z,53.49
2018-03-29T07:45:43.828Z,53.49
2018-03-29T07:46:43.862Z,53.49
2018-03-29T07:47:43.887Z,53.58
2018-03-29T07:48:43.939Z,53.39
2018-03-29T07:49:43.952Z,53.20
2018-03-29T07:50:43.970Z,53.39
2018-03-29T07:51:44.304Z,53.39
2018-03-29T07:52:44.030Z,53.49
2018-03-29T07:53:44.058Z,53.49
2018-03-29T07:54:44.083Z,53.87
2018-03-29T07:55:44.131Z,53.49
2018-03-29T07:56:44.147Z,53.20
2018-03-29T07:57:44.257Z,53.58
2018-03-29T07:58:44.452Z,53.30
2018-03-29T07:59:44.230Z,53.58
2018-03-29T08:00:44.267Z,53.49
2018-03-29T08:01:44.296Z,53.68
2018-03-29T08:02:44.313Z,53.68
2018-03-29T08:03:44.343Z,53.49
2018-03-29T08:04:44.376Z,53.39
2018-03-29T08:05:44.699Z,53.39
2018-03-29T08:06:44.426Z,53.49
2018-03-29T08:07:44.459Z,53.39
2018-03-29T08:08:44.493Z,53.49
2018-03-29T08:09:44.515Z,53.49
2018-03-29T08:10:44.550Z,53.49
2018-03-29T08:11:44.574Z,53.58
2018-03-29T08:12:44.913Z,53.78
2018-03-29T08:13:44.699Z,53.68
2018-03-29T08:14:44.674Z,53.58
2018-03-29T08:15:44.686Z,53.68
2018-03-29T08:16:44.722Z,53.49
2018-03-29T08:17:44.762Z,53.39
2018-03-29T08:18:44.788Z,53.78
2018-03-29T08:19:45.132Z,53.68
2018-03-29T08:20:44.838Z,53.58
2018-03-29T08:21:44.874Z,53.39
2018-03-29T08:22:44.890Z,53.68
2018-03-29T08:23:44.972Z,53.78
2018-03-29T08:24:44.995Z,53.49
2018-03-29T08:25:44.987Z,53.68
2018-03-29T08:26:45.253Z,53.58
2018-03-29T08:27:45.038Z,53.39
2018-03-29T08:28:45.066Z,53.68
2018-03-29T08:29:45.095Z,53.49
2018-03-29T08:30:45.122Z,53.49
2018-03-29T08:31:45.151Z,53.30
2018-03-29T08:32:45.181Z,53.58
2018-03-29T08:33:45.456Z,53.39
2018-03-29T08:34:45.246Z,53.30
2018-03-29T08:35:45.263Z,53.49
2018-03-29T08:36:45.290Z,53.20
2018-03-29T08:37:45.342Z,53.49
2018-03-29T08:38:45.364Z,53.78
2018-03-29T08:39:45.684Z,53.58
2018-03-29T08:40:45.408Z,53.30
2018-03-29T08:41:45.482Z,53.11
2018-03-29T08:42:45.468Z,53.01
2018-03-29T08:43:45.511Z,52.91
2018-03-29T08:44:45.533Z,53.58
2018-03-29T08:45:45.804Z,53.58
2018-03-29T08:46:45.613Z,53.68
2018-03-29T08:47:45.640Z,52.91
2018-03-29T08:48:45.640Z,53.11
2018-03-29T08:49:45.673Z,53.11
2018-03-29T08:50:45.705Z,53.68
2018-03-29T08:51:46.036Z,53.49
2018-03-29T08:52:45.756Z,53.68
2018-03-29T08:53:45.789Z,53.49
2018-03-29T08:54:45.814Z,53.78
2018-03-29T08:55:45.884Z,52.72
2018-03-29T08:56:45.891Z,52.81
2018-03-29T08:57:46.158Z,52.62
2018-03-29T08:58:45.924Z,52.72
2018-03-29T08:59:45.960Z,52.91
2018-03-29T09:00:45.998Z,53.11
2018-03-29T09:01:46.020Z,52.72
2018-03-29T09:02:46.047Z,52.62
2018-03-29T09:03:46.371Z,52.81
2018-03-29T09:04:46.106Z,52.72
2018-03-29T09:05:46.127Z,52.81
2018-03-29T09:06:46.158Z,52.72
2018-03-29T09:07:46.185Z,53.01
2018-03-29T09:08:46.220Z,52.81
2018-03-29T09:09:46.554Z,53.01
2018-03-29T09:10:46.275Z,52.81
2018-03-29T09:11:46.301Z,52.62
2018-03-29T09:12:46.337Z,52.91
2018-03-29T09:13:46.363Z,52.91
2018-03-29T09:14:46.387Z,52.53
2018-03-29T09:15:46.725Z,52.91
2018-03-29T09:16:46.447Z,52.91
2018-03-29T09:17:46.477Z,52.53
2018-03-29T09:18:46.543Z,52.81
2018-03-29T09:19:46.539Z,52.36
2018-03-29T09:20:46.569Z,52.43
2018-03-29T09:21:46.912Z,52.75
2018-03-29T09:22:46.636Z,52.55
2018-03-29T09:23:46.898Z,52.55
2018-03-29T09:24:46.720Z,52.14
2018-03-29T09:25:46.715Z,52.05
2018-03-29T09:26:46.742Z,52.34
2018-03-29T09:27:47.094Z,52.46
2018-03-29T09:28:46.799Z,52.53
2018-03-29T09:29:46.834Z,52.46
2018-03-29T09:30:46.868Z,53.01
2018-03-29T09:31:46.911Z,52.46
2018-03-29T09:32:46.994Z,52.36
2018-03-29T09:33:47.254Z,52.36
2018-03-29T09:34:46.996Z,52.08
2018-03-29T09:35:47.001Z,52.17
2018-03-29T09:36:47.033Z,52.46
2018-03-29T09:37:47.077Z,52.08
2018-03-29T09:38:47.099Z,52.08
2018-03-29T09:39:47.445Z,52.17
2018-03-29T09:40:47.145Z,52.36
2018-03-29T09:41:47.267Z,51.98
2018-03-29T09:42:47.207Z,52.08
2018-03-29T09:43:47.275Z,51.98
2018-03-29T09:44:47.277Z,52.36
2018-03-29T09:45:47.600Z,51.98
2018-03-29T09:46:47.324Z,52.36
2018-03-29T09:47:47.349Z,52.17
2018-03-29T09:48:47.582Z,52.08
2018-03-29T09:49:47.416Z,51.98
2018-03-29T09:50:47.428Z,52.08
2018-03-29T09:51:48.310Z,52.17
2018-03-29T09:52:47.742Z,51.98
2018-03-29T09:53:47.522Z,52.36
2018-03-29T09:54:47.551Z,52.17
2018-03-29T09:55:47.594Z,52.17
2018-03-29T09:56:47.618Z,52.46
2018-03-29T09:57:47.646Z,52.17
2018-03-29T09:58:47.723Z,52.17
2018-03-29T09:59:47.962Z,52.46
2018-03-29T10:00:47.734Z,51.98
2018-03-29T10:01:47.780Z,51.98
2018-03-29T10:02:47.788Z,51.79
2018-03-29T10:03:47.868Z,51.98
2018-03-29T10:04:47.997Z,52.08
2018-03-29T10:05:47.871Z,52.17
2018-03-29T10:06:48.196Z,52.08
2018-03-29T10:07:47.943Z,51.40
2018-03-29T10:08:47.972Z,51.40
2018-03-29T10:09:47.987Z,51.21
2018-03-29T10:10:48.019Z,51.59
2018-03-29T10:11:48.054Z,51.98
2018-03-29T10:12:48.073Z,51.88
2018-03-29T10:13:48.359Z,51.98
2018-03-29T10:14:48.154Z,51.98
2018-03-29T10:15:48.171Z,51.69
2018-03-29T10:16:48.199Z,51.79
2018-03-29T10:17:48.225Z,51.69
2018-03-29T10:18:48.276Z,51.69
2018-03-29T10:19:48.277Z,52.36
2018-03-29T10:20:48.619Z,51.98
2018-03-29T10:21:48.337Z,52.08
2018-03-29T10:22:48.370Z,51.98
2018-03-29T10:23:48.397Z,52.17
2018-03-29T10:24:48.424Z,51.98
2018-03-29T10:25:48.459Z,52.08
2018-03-29T10:26:48.484Z,51.98
2018-03-29T10:27:48.784Z,51.59
2018-03-29T10:28:48.542Z,51.88
2018-03-29T10:29:48.585Z,51.31
2018-03-29T10:30:48.601Z,52.08
2018-03-29T10:31:48.692Z,51.14
2018-03-29T10:32:48.662Z,51.40
2018-03-29T10:33:48.690Z,51.50
2018-03-29T10:34:48.975Z,51.43
2018-03-29T10:35:48.805Z,51.40
2018-03-29T10:36:48.779Z,51.62
2018-03-29T10:37:48.822Z,51.69
2018-03-29T10:38:48.836Z,51.88
2018-03-29T10:39:48.884Z,51.50
2018-03-29T10:40:48.913Z,51.33
2018-03-29T10:41:49.230Z,51.59
2018-03-29T10:42:48.955Z,51.88
2018-03-29T10:43:48.989Z,51.50
2018-03-29T10:44:49.018Z,51.11
2018-03-29T10:45:49.053Z,51.11
2018-03-29T10:46:49.069Z,51.62
2018-03-29T10:47:49.171Z,51.50
2018-03-29T10:48:49.406Z,52.08
2018-03-29T10:49:49.170Z,52.10
2018-03-29T10:50:49.192Z,52.10
2018-03-29T10:51:49.219Z,51.91
2018-03-29T10:52:49.252Z,52.00
2018-03-29T10:53:49.278Z,52.00
2018-03-29T10:54:49.313Z,51.81
2018-03-29T10:55:49.639Z,52.00
2018-03-29T10:56:49.387Z,51.43
2018-03-29T10:57:49.409Z,51.53
2018-03-29T10:58:49.459Z,51.33
2018-03-29T10:59:49.477Z,51.91
2018-03-29T11:00:49.529Z,51.81
2018-03-29T11:01:49.527Z,51.23
2018-03-29T11:02:50.002Z,51.14
2018-03-29T11:03:49.587Z,51.43
2018-03-29T11:04:49.660Z,51.33
2018-03-29T11:05:49.671Z,51.43
2018-03-29T11:06:49.694Z,51.14
2018-03-29T11:07:49.705Z,50.85
2018-03-29T11:08:49.740Z,51.14
2018-03-29T11:09:50.053Z,51.14
2018-03-29T11:10:49.787Z,51.04
2018-03-29T11:11:49.812Z,50.95
2018-03-29T11:12:49.841Z,51.33
2018-03-29T11:13:49.871Z,51.14
2018-03-29T11:14:49.900Z,51.43
2018-03-29T11:15:50.245Z,51.23
2018-03-29T11:16:50.011Z,50.46
2018-03-29T11:17:50.142Z,50.95
2018-03-29T11:18:50.039Z,50.95
2018-03-29T11:19:50.051Z,50.95
2018-03-29T11:20:50.086Z,50.85
2018-03-29T11:21:50.411Z,50.95
2018-03-29T11:22:50.137Z,51.04
2018-03-29T11:23:50.178Z,51.14
2018-03-29T11:24:50.198Z,51.04
2018-03-29T11:25:50.248Z,50.85
2018-03-29T11:26:50.295Z,50.85
2018-03-29T11:27:50.647Z,50.95
2018-03-29T11:28:50.318Z,51.04
2018-03-29T11:29:50.543Z,51.04
2018-03-29T11:30:50.437Z,50.76
2018-03-29T11:31:50.415Z,50.66
2018-03-29T11:32:50.437Z,50.76
2018-03-29T11:33:50.772Z,51.07
2018-03-29T11:34:50.503Z,50.95
2018-03-29T11:35:50.543Z,50.56
2018-03-29T11:36:50.571Z,50.78
2018-03-29T11:37:50.614Z,50.85
2018-03-29T11:38:50.632Z,50.85
2018-03-29T11:39:50.649Z,50.46
2018-03-29T11:40:50.957Z,50.59
2018-03-29T11:41:50.710Z,50.56
2018-03-29T11:42:50.748Z,50.78
2018-03-29T11:43:50.780Z,50.78
2018-03-29T11:44:50.798Z,50.68
2018-03-29T11:45:50.841Z,50.68
2018-03-29T11:46:50.856Z,51.07
2018-03-29T11:47:50.897Z,50.68
2018-03-29T11:48:51.026Z,50.68
2018-03-29T11:49:50.959Z,50.40
2018-03-29T11:50:50.993Z,50.59
2018-03-29T11:51:51.078Z,50.59
2018-03-29T11:52:51.373Z,50.68
2018-03-29T11:53:51.074Z,50.68
2018-03-29T11:54:51.148Z,50.49
2018-03-29T11:55:51.147Z,50.68
2018-03-29T11:56:51.282Z,50.59
2018-03-29T11:57:51.200Z,50.78
2018-03-29T11:58:51.245Z,50.68
2018-03-29T11:59:51.332Z,50.59
2018-03-29T12:00:51.335Z,50.87
2018-03-29T12:01:51.394Z,50.30
2018-03-29T12:02:51.360Z,50.68
2018-03-29T12:03:51.378Z,50.20
2018-03-29T12:04:51.715Z,50.10
2018-03-29T12:05:51.435Z,50.01
2018-03-29T12:06:51.516Z,49.91
2018-03-29T12:07:51.501Z,49.63
2018-03-29T12:08:51.518Z,49.53
2018-03-29T12:09:51.556Z,48.95
2018-03-29T12:10:51.833Z,49.33
2018-03-29T12:11:51.694Z,49.05
2018-03-29T12:12:51.677Z,49.43
2018-03-29T12:13:51.699Z,48.76
2018-03-29T12:14:51.740Z,48.47
2018-03-29T12:15:51.728Z,48.47
2018-03-29T12:16:52.008Z,48.38
2018-03-29T12:17:51.796Z,48.66
2018-03-29T12:18:51.827Z,49.24
2018-03-29T12:19:51.919Z,49.43
2018-03-29T12:20:51.880Z,48.28
2018-03-29T12:21:51.910Z,48.47
2018-03-29T12:22:51.944Z,48.47
2018-03-29T12:23:52.286Z,48.38
2018-03-29T12:24:52.021Z,48.66
2018-03-29T12:25:52.081Z,48.57
2018-03-29T12:26:52.064Z,48.47
2018-03-29T12:27:52.098Z,48.47
2018-03-29T12:28:52.136Z,48.47
2018-03-29T12:29:52.169Z,48.28
2018-03-29T12:30:52.517Z,48.38
2018-03-29T12:31:52.265Z,48.28
2018-03-29T12:32:52.270Z,47.89
2018-03-29T12:33:52.288Z,47.44
2018-03-29T12:34:52.405Z,47.61
2018-03-29T12:35:52.342Z,47.80
2018-03-29T12:36:52.365Z,47.63
2018-03-29T12:37:52.720Z,47.63
2018-03-29T12:38:52.430Z,47.70
2018-03-29T12:39:52.472Z,47.80
2018-03-29T12:40:52.490Z,47.34
2018-03-29T12:41:52.534Z,47.34
2018-03-29T12:42:52.548Z,47.15
2018-03-29T12:43:52.587Z,47.03
2018-03-29T12:44:52.929Z,47.31
2018-03-29T12:45:52.645Z,47.63
2018-03-29T12:46:52.670Z,47.34
2018-03-29T12:47:52.717Z,47.80
2018-03-29T12:48:52.805Z,47.24
2018-03-29T12:49:52.762Z,47.15
2018-03-29T12:50:52.795Z,47.41
2018-03-29T12:51:53.125Z,47.53
2018-03-29T12:52:52.857Z,47.22